createdAt,value
2022-09-28T00:00:15.281Z,82.83
2022-09-28T00:01:23.560Z,82.84
2022-09-28T00:02:27.561Z,82.83
2022-09-28T00:03:30.518Z,82.84
2022-09-28T00:04:33.534Z,82.87
2022-09-28T00:05:36.375Z,82.82
2022-09-28T00:06:39.603Z,82.81
2022-09-28T00:07:43.119Z,82.85
2022-09-28T00:08:46.485Z,82.86
2022-09-28T00:09:49.347Z,82.77
2022-09-28T00:10:55.871Z,82.77
2022-09-28T00:11:59.259Z,82.81
2022-09-28T00:13:02.324Z,82.77
2022-09-28T00:14:06.897Z,82.73
2022-09-28T00:15:10.249Z,82.75
2022-09-28T00:16:16.588Z,82.84
2022-09-28T00:17:21.392Z,82.77
2022-09-28T00:18:24.146Z,82.76
2022-09-28T00:19:27.276Z,82.87
2022-09-28T00:20:30.698Z,82.75
2022-09-28T00:21:36.080Z,82.75
2022-09-28T00:22:38.948Z,82.87
2022-09-28T00:24:00.901Z,82.73
2022-09-28T00:25:05.138Z,82.75
2022-09-28T00:26:08.381Z,82.87
2022-09-28T00:27:11.903Z,82.88
2022-09-28T00:28:14.745Z,82.77
2022-09-28T00:29:31.033Z,82.81
2022-09-28T00:30:34.135Z,82.81
2022-09-28T00:31:37.087Z,82.84
2022-09-28T00:32:40.044Z,82.86
2022-09-28T00:33:42.751Z,82.86
2022-09-28T00:34:45.820Z,82.68
2022-09-28T00:35:57.572Z,82.68
2022-09-28T00:37:02.022Z,82.86
2022-09-28T00:38:05.374Z,82.84
2022-09-28T00:39:08.648Z,82.94
2022-09-28T00:40:12.150Z,82.87
2022-09-28T00:41:15.794Z,82.84
2022-09-28T00:42:21.791Z,82.84
2022-09-28T00:43:25.860Z,82.84
2022-09-28T00:44:41.553Z,82.82
2022-09-28T00:45:45.101Z,82.82
2022-09-28T00:46:51.492Z,82.89
2022-09-28T00:47:58.076Z,82.89
2022-09-28T00:49:08.250Z,82.86
2022-09-28T00:50:30.584Z,82.87
2022-09-28T00:51:36.321Z,82.86
2022-09-28T00:52:57.381Z,82.84
2022-09-28T00:54:03.198Z,82.85
2022-09-28T00:55:09.864Z,82.86
2022-09-28T00:56:18.472Z,82.85
2022-09-28T00:57:22.649Z,82.88
2022-09-28T00:58:29.120Z,82.87
2022-09-28T00:59:33.580Z,82.88
2022-09-28T01:00:37.308Z,82.85
2022-09-28T01:01:40.398Z,82.91
2022-09-28T01:02:45.167Z,82.82
2022-09-28T01:03:48.328Z,82.79
2022-09-28T01:04:51.768Z,82.74
2022-09-28T01:05:57.789Z,82.77
2022-09-28T01:07:00.847Z,82.77
2022-09-28T01:08:05.167Z,82.80
2022-09-28T01:09:10.153Z,82.80
2022-09-28T01:10:14.247Z,82.85
2022-09-28T01:11:19.255Z,82.84
2022-09-28T01:12:22.146Z,82.78
2022-09-28T01:13:25.665Z,82.77
2022-09-28T01:14:28.718Z,82.71
2022-09-28T01:15:34.926Z,82.72
2022-09-28T01:16:56.724Z,82.74
2022-09-28T01:18:13.809Z,82.61
2022-09-28T01:19:41.013Z,82.77
2022-09-28T01:20:56.649Z,82.70
2022-09-28T01:22:18.361Z,82.76
2022-09-28T01:23:30.954Z,82.79
2022-09-28T01:24:48.117Z,82.80
2022-09-28T01:25:55.262Z,82.86
2022-09-28T01:27:05.391Z,82.81
2022-09-28T01:28:14.630Z,82.81
2022-09-28T01:29:21.026Z,82.95
2022-09-28T01:30:25.524Z,82.82
2022-09-28T01:31:32.264Z,82.85
2022-09-28T01:32:55.342Z,82.95
2022-09-28T01:34:07.754Z,82.87
2022-09-28T01:35:23.733Z,82.84
2022-09-28T01:36:42.502Z,82.78
2022-09-28T01:37:51.833Z,82.88
2022-09-28T01:39:04.431Z,82.82
2022-09-28T01:40:11.147Z,82.90
2022-09-28T01:41:17.217Z,82.95
2022-09-28T01:42:24.625Z,82.84
2022-09-28T01:43:30.005Z,82.90
2022-09-28T01:44:38.389Z,82.85
2022-09-28T01:45:45.220Z,83.00
2022-09-28T01:46:50.269Z,82.98
2022-09-28T01:47:56.864Z,82.83
2022-09-28T01:50:20.240Z,82.92
2022-09-28T01:51:35.897Z,82.90
2022-09-28T01:52:52.027Z,82.92
2022-09-28T01:53:58.558Z,82.91
2022-09-28T01:55:05.218Z,82.95
2022-09-28T01:56:14.687Z,82.92
2022-09-28T01:57:31.309Z,82.96
2022-09-28T01:58:40.931Z,82.95
2022-09-28T01:59:47.669Z,82.95
2022-09-28T02:00:54.420Z,82.98
2022-09-28T02:02:12.833Z,82.95
2022-09-28T02:03:19.254Z,82.99
2022-09-28T02:04:30.789Z,83.05
2022-09-28T02:05:37.294Z,83.01
2022-09-28T02:06:49.666Z,83.02
2022-09-28T02:08:11.418Z,83.02
2022-09-28T02:09:22.950Z,83.04
2022-09-28T02:10:35.490Z,83.13
2022-09-28T02:11:42.236Z,83.19
2022-09-28T02:12:48.877Z,83.08
2022-09-28T02:14:01.690Z,83.16
2022-09-28T02:15:14.279Z,83.15
2022-09-28T02:16:26.715Z,83.21
2022-09-28T02:17:29.809Z,83.19
2022-09-28T02:18:33.289Z,83.19
2022-09-28T02:19:36.581Z,83.31
2022-09-28T02:20:43.189Z,83.15
2022-09-28T02:21:59.133Z,83.16
2022-09-28T02:23:04.212Z,83.21
2022-09-28T02:24:21.266Z,83.22
2022-09-28T02:25:24.795Z,83.26
2022-09-28T02:26:31.842Z,83.25
2022-09-28T02:27:41.772Z,83.22
2022-09-28T02:28:44.763Z,83.26
2022-09-28T02:29:49.161Z,83.40
2022-09-28T02:30:52.248Z,83.26
2022-09-28T02:31:55.312Z,83.29
2022-09-28T02:33:01.867Z,83.25
2022-09-28T02:34:05.138Z,83.25
2022-09-28T02:35:12.175Z,83.28
2022-09-28T02:36:15.449Z,83.25
2022-09-28T02:37:18.579Z,83.26
2022-09-28T02:38:21.564Z,83.30
2022-09-28T02:39:26.198Z,83.41
2022-09-28T02:40:32.806Z,83.35
2022-09-28T02:41:52.194Z,83.31
2022-09-28T02:43:15.425Z,83.32
2022-09-28T02:44:40.055Z,83.33
2022-09-28T02:45:55.728Z,83.34
2022-09-28T02:47:14.956Z,83.39
2022-09-28T02:48:41.532Z,83.43
2022-09-28T02:49:35.952Z,83.46
2022-09-28T02:50:45.459Z,83.58
2022-09-28T02:52:14.779Z,83.60
2022-09-28T02:53:37.724Z,83.63
2022-09-28T02:54:59.325Z,83.64
2022-09-28T02:56:14.504Z,83.81
2022-09-28T02:57:29.821Z,83.78
2022-09-28T02:58:36.563Z,83.74
2022-09-28T02:59:59.722Z,83.89
2022-09-28T03:01:32.959Z,83.91
2022-09-28T03:02:51.719Z,83.90
2022-09-28T03:03:58.217Z,83.94
2022-09-28T03:05:13.698Z,84.10
2022-09-28T03:06:29.005Z,83.99
2022-09-28T03:07:38.421Z,84.03
2022-09-28T03:08:47.984Z,84.13
2022-09-28T03:10:24.772Z,84.11
2022-09-28T03:11:40.159Z,84.25
2022-09-28T03:12:46.085Z,84.20
2022-09-28T03:13:51.453Z,84.33
2022-09-28T03:15:22.734Z,84.28
2022-09-28T03:16:26.970Z,84.26
2022-09-28T03:17:30.412Z,84.30
2022-09-28T03:18:33.468Z,84.33
2022-09-28T03:19:36.586Z,84.42
2022-09-28T03:20:39.633Z,84.31
2022-09-28T03:21:42.491Z,84.30
2022-09-28T03:23:00.238Z,84.28
2022-09-28T03:23:51.354Z,84.31
2022-09-28T03:24:54.161Z,84.33
2022-09-28T03:25:57.073Z,84.32
2022-09-28T03:27:00.228Z,84.35
2022-09-28T03:28:03.143Z,84.34
2022-09-28T03:29:07.899Z,84.34
2022-09-28T03:30:12.396Z,84.36
2022-09-28T03:31:16.814Z,84.38
2022-09-28T03:32:19.890Z,84.38
2022-09-28T03:33:23.067Z,84.37
2022-09-28T03:34:26.128Z,84.38
2022-09-28T03:35:29.374Z,84.45
2022-09-28T03:36:32.377Z,84.34
2022-09-28T03:37:36.066Z,84.37
2022-09-28T03:38:39.532Z,84.43
2022-09-28T03:39:42.945Z,84.29
2022-09-28T03:40:55.523Z,84.29
2022-09-28T03:42:00.566Z,84.50
2022-09-28T03:43:04.028Z,84.62
2022-09-28T03:44:07.067Z,84.54
2022-09-28T03:45:10.375Z,84.56
2022-09-28T03:46:14.388Z,84.53
2022-09-28T03:47:19.475Z,84.55
2022-09-28T03:48:32.645Z,84.61
2022-09-28T03:49:35.981Z,84.64
2022-09-28T03:50:39.096Z,84.67
2022-09-28T03:51:42.054Z,84.74
2022-09-28T03:52:44.984Z,84.74
2022-09-28T03:53:48.018Z,84.74
2022-09-28T03:54:50.969Z,84.84
2022-09-28T03:55:53.997Z,84.74
2022-09-28T03:56:56.997Z,84.78
2022-09-28T03:58:00.046Z,84.82
2022-09-28T03:59:04.119Z,84.77
2022-09-28T04:00:08.843Z,84.90
2022-09-28T04:01:18.490Z,84.91
2022-09-28T04:02:22.379Z,84.86
2022-09-28T04:03:25.461Z,84.86
2022-09-28T04:04:28.820Z,84.85
2022-09-28T04:05:32.389Z,84.85
2022-09-28T04:06:35.455Z,84.86
2022-09-28T04:07:38.385Z,84.84
2022-09-28T04:08:42.800Z,84.87
2022-09-28T04:09:45.896Z,84.86
2022-09-28T04:10:49.058Z,84.87
2022-09-28T04:12:03.255Z,84.94
2022-09-28T04:12:57.302Z,84.93
2022-09-28T04:14:00.890Z,85.03
2022-09-28T04:15:04.484Z,84.98
2022-09-28T04:16:09.156Z,84.88
2022-09-28T04:17:12.150Z,84.87
2022-09-28T04:18:15.978Z,84.85
2022-09-28T04:19:26.993Z,84.87
2022-09-28T04:20:48.441Z,84.88
2022-09-28T04:21:51.771Z,84.96
2022-09-28T04:22:54.917Z,84.91
2022-09-28T04:23:58.874Z,84.88
2022-09-28T04:25:01.891Z,84.90
2022-09-28T04:26:07.279Z,84.90
2022-09-28T04:27:28.563Z,84.90
2022-09-28T04:28:50.153Z,84.90
2022-09-28T04:29:53.133Z,84.83
2022-09-28T04:30:56.231Z,84.83
2022-09-28T04:32:00.717Z,84.81
2022-09-28T04:33:11.165Z,84.83
2022-09-28T04:34:16.780Z,84.81
2022-09-28T04:35:19.925Z,84.89
2022-09-28T04:36:24.564Z,84.93
2022-09-28T04:37:29.579Z,84.88
2022-09-28T04:38:51.729Z,84.87
2022-09-28T04:39:43.120Z,85.01
2022-09-28T04:40:48.920Z,84.88
2022-09-28T04:41:52.034Z,84.92
2022-09-28T04:42:56.248Z,84.96
2022-09-28T04:44:00.225Z,84.85
2022-09-28T04:45:04.246Z,84.93
2022-09-28T04:46:10.092Z,85.01
2022-09-28T04:47:15.186Z,84.98
2022-09-28T04:48:36.998Z,85.16
2022-09-28T04:49:44.662Z,85.00
2022-09-28T04:50:56.688Z,85.18
2022-09-28T04:51:59.720Z,85.08
2022-09-28T04:53:03.687Z,85.13
2022-09-28T04:54:06.673Z,85.11
2022-09-28T04:55:12.222Z,85.21
2022-09-28T04:56:17.965Z,85.09
2022-09-28T04:57:21.469Z,85.02
2022-09-28T04:58:24.702Z,85.08
2022-09-28T04:59:27.578Z,85.12
2022-09-28T05:00:32.845Z,85.24
2022-09-28T05:01:37.604Z,85.11
2022-09-28T05:03:00.709Z,85.17
2022-09-28T05:04:14.424Z,85.11
2022-09-28T05:06:32.648Z,85.15
2022-09-28T05:07:37.430Z,85.31
2022-09-28T05:08:43.269Z,85.19
2022-09-28T05:09:46.493Z,85.02
2022-09-28T05:10:55.057Z,85.02
2022-09-28T05:11:58.120Z,85.14
2022-09-28T05:13:02.013Z,85.13
2022-09-28T05:14:05.509Z,85.11
2022-09-28T05:15:08.917Z,85.21
2022-09-28T05:16:14.028Z,85.18
2022-09-28T05:17:18.916Z,85.19
2022-09-28T05:18:41.737Z,85.20
2022-09-28T05:19:44.724Z,85.18
2022-09-28T05:20:47.678Z,85.21
2022-09-28T05:21:50.623Z,85.16
2022-09-28T05:22:53.681Z,85.19
2022-09-28T05:23:57.741Z,85.21
2022-09-28T05:25:02.320Z,85.18
2022-09-28T05:26:07.769Z,85.22
2022-09-28T05:27:11.940Z,85.22
2022-09-28T05:28:16.682Z,85.19
2022-09-28T05:29:24.331Z,85.20
2022-09-28T05:30:45.789Z,85.28
2022-09-28T05:32:08.493Z,85.17
2022-09-28T05:33:22.325Z,85.20
2022-09-28T05:34:27.131Z,85.25
2022-09-28T05:35:31.019Z,85.28
2022-09-28T05:36:35.178Z,85.29
2022-09-28T05:37:38.533Z,85.41
2022-09-28T05:38:41.706Z,85.27
2022-09-28T05:39:45.067Z,85.25
2022-09-28T05:40:48.221Z,85.34
2022-09-28T05:41:51.485Z,85.25
2022-09-28T05:42:58.081Z,85.30
2022-09-28T05:44:01.682Z,85.31
2022-09-28T05:45:06.379Z,85.40
2022-09-28T05:46:11.615Z,85.46
2022-09-28T05:47:16.572Z,85.35
2022-09-28T05:48:19.623Z,85.32
2022-09-28T05:49:22.600Z,85.36
2022-09-28T05:50:25.667Z,85.32
2022-09-28T05:51:29.002Z,85.30
2022-09-28T05:52:32.114Z,85.28
2022-09-28T05:53:35.207Z,85.28
2022-09-28T05:54:38.195Z,85.29
2022-09-28T05:55:41.264Z,85.19
2022-09-28T05:56:44.253Z,85.20
2022-09-28T05:57:47.354Z,85.34
2022-09-28T05:58:50.420Z,85.25
2022-09-28T05:59:55.873Z,85.24
2022-09-28T06:00:59.045Z,85.25
2022-09-28T06:02:03.564Z,85.18
2022-09-28T06:03:09.699Z,85.17
2022-09-28T06:04:14.238Z,85.07
2022-09-28T06:05:18.290Z,85.04
2022-09-28T06:06:21.375Z,85.02
2022-09-28T06:07:24.482Z,84.94
2022-09-28T06:08:27.529Z,84.89
2022-09-28T06:09:32.444Z,84.88
2022-09-28T06:10:40.451Z,84.85
2022-09-28T06:11:43.520Z,84.77
2022-09-28T06:12:54.541Z,84.71
2022-09-28T06:13:57.509Z,84.60
2022-09-28T06:15:02.388Z,84.57
2022-09-28T06:16:07.480Z,84.51
2022-09-28T06:17:10.519Z,84.48
2022-09-28T06:18:14.466Z,84.44
2022-09-28T06:19:19.252Z,84.33
2022-09-28T06:20:41.305Z,84.28
2022-09-28T06:21:47.423Z,84.24
2022-09-28T06:22:52.370Z,84.29
2022-09-28T06:23:55.427Z,84.14
2022-09-28T06:24:58.347Z,84.10
2022-09-28T06:26:01.491Z,84.09
2022-09-28T06:27:04.523Z,84.13
2022-09-28T06:28:10.904Z,84.02
2022-09-28T06:29:19.486Z,84.02
2022-09-28T06:30:22.862Z,84.06
2022-09-28T06:31:26.608Z,83.99
2022-09-28T06:32:30.196Z,84.02
2022-09-28T06:33:34.486Z,83.94
2022-09-28T06:34:37.962Z,83.96
2022-09-28T06:35:41.734Z,83.94
2022-09-28T06:36:44.748Z,84.00
2022-09-28T06:37:47.951Z,83.97
2022-09-28T06:38:50.932Z,84.03
2022-09-28T06:39:54.241Z,84.12
2022-09-28T06:40:58.360Z,83.99
2022-09-28T06:42:03.348Z,83.93
2022-09-28T06:43:14.468Z,83.90
2022-09-28T06:44:35.813Z,83.82
2022-09-28T06:45:42.172Z,83.72
2022-09-28T06:46:47.091Z,83.63
2022-09-28T06:47:57.835Z,83.57
2022-09-28T06:49:03.146Z,83.54
2022-09-28T06:50:11.822Z,83.55
2022-09-28T06:51:28.774Z,83.55
2022-09-28T06:52:33.727Z,83.59
2022-09-28T06:53:38.521Z,83.51
2022-09-28T06:54:46.558Z,83.44
2022-09-28T06:55:51.536Z,83.36
2022-09-28T06:56:54.680Z,83.29
2022-09-28T06:58:00.287Z,83.31
2022-09-28T06:59:03.311Z,83.10
2022-09-28T07:00:07.612Z,83.07
2022-09-28T07:01:11.552Z,82.98
2022-09-28T07:02:16.491Z,82.96
2022-09-28T07:03:37.526Z,82.83
2022-09-28T07:04:58.529Z,82.83
2022-09-28T07:06:15.569Z,82.72
2022-09-28T07:07:36.884Z,82.63
2022-09-28T07:08:42.794Z,82.58
2022-09-28T07:10:02.347Z,82.48
2022-09-28T07:11:08.353Z,82.41
2022-09-28T07:13:49.186Z,82.56
2022-09-28T07:14:47.505Z,82.67
2022-09-28T07:15:40.659Z,82.56
2022-09-28T07:17:08.652Z,82.63
2022-09-28T07:18:02.665Z,82.67
2022-09-28T07:19:03.858Z,82.71
2022-09-28T07:20:17.556Z,82.85
2022-09-28T07:21:23.066Z,82.85
2022-09-28T07:22:20.051Z,82.85
2022-09-28T07:23:25.701Z,82.89
2022-09-28T07:24:48.317Z,82.87
2022-09-28T07:26:10.071Z,82.87
2022-09-28T07:27:18.963Z,82.91
2022-09-28T07:28:24.868Z,82.80
2022-09-28T07:29:32.452Z,82.64
2022-09-28T07:30:38.133Z,82.41
2022-09-28T07:31:45.843Z,82.21
2022-09-28T07:33:09.174Z,81.95
2022-09-28T07:34:13.980Z,81.77
2022-09-28T07:35:19.049Z,81.54
2022-09-28T07:36:23.933Z,81.44
2022-09-28T07:37:28.584Z,81.28
2022-09-28T07:38:32.912Z,81.24
2022-09-28T07:39:57.515Z,81.03
2022-09-28T07:41:13.690Z,80.96
2022-09-28T07:42:18.455Z,80.85
2022-09-28T07:43:21.995Z,80.73
2022-09-28T07:44:28.710Z,80.53
2022-09-28T07:45:33.580Z,80.37
2022-09-28T07:46:36.980Z,80.24
2022-09-28T07:47:58.208Z,80.08
2022-09-28T07:49:09.722Z,80.02
2022-09-28T07:51:24.541Z,79.84
2022-09-28T07:52:29.393Z,79.66
2022-09-28T07:53:40.327Z,79.60
2022-09-28T07:54:57.925Z,79.55
2022-09-28T07:56:08.997Z,79.39
2022-09-28T07:57:21.121Z,79.41
2022-09-28T07:58:25.919Z,79.45
2022-09-28T07:59:31.199Z,79.52
2022-09-28T08:00:54.084Z,79.41
2022-09-28T08:01:58.425Z,79.06
2022-09-28T08:03:02.634Z,78.91
2022-09-28T08:04:07.057Z,78.74
2022-09-28T08:05:11.963Z,78.68
2022-09-28T08:06:17.180Z,78.66
2022-09-28T08:07:24.127Z,78.59
2022-09-28T08:08:29.449Z,78.52
2022-09-28T08:09:32.569Z,78.35
2022-09-28T08:10:46.483Z,78.20
2022-09-28T08:11:55.635Z,78.04
2022-09-28T08:13:21.246Z,77.81
2022-09-28T08:14:29.119Z,77.70
2022-09-28T08:15:37.745Z,77.48
2022-09-28T08:16:47.506Z,77.23
2022-09-28T08:17:52.259Z,76.93
2022-09-28T08:18:57.117Z,76.68
2022-09-28T08:20:20.570Z,76.55
2022-09-28T08:21:42.677Z,76.49
2022-09-28T08:22:46.016Z,76.40
2022-09-28T08:23:49.931Z,76.33
2022-09-28T08:24:53.185Z,76.37
2022-09-28T08:25:56.035Z,76.41
2022-09-28T08:27:00.079Z,76.25
2022-09-28T08:28:08.114Z,76.09
2022-09-28T08:29:16.462Z,76.13
2022-09-28T08:30:21.561Z,76.09
2022-09-28T08:31:27.157Z,76.06
2022-09-28T08:32:50.970Z,75.66
2022-09-28T08:34:12.025Z,75.57
2022-09-28T08:35:34.985Z,75.53
2022-09-28T08:36:42.922Z,75.56
2022-09-28T08:38:04.763Z,75.47
2022-09-28T08:39:15.500Z,75.33
2022-09-28T08:40:35.998Z,75.26
2022-09-28T08:41:47.348Z,75.11
2022-09-28T08:42:58.571Z,74.75
2022-09-28T08:44:23.892Z,74.56
2022-09-28T08:45:45.224Z,74.46
2022-09-28T08:47:10.940Z,74.39
2022-09-28T08:48:45.703Z,74.46
2022-09-28T08:50:09.750Z,74.52
2022-09-28T08:51:30.552Z,74.58
2022-09-28T08:52:38.980Z,74.52
2022-09-28T08:54:05.793Z,74.52
2022-09-28T08:55:31.933Z,74.39
2022-09-28T08:56:45.153Z,74.41
2022-09-28T08:57:52.414Z,74.45
2022-09-28T08:59:00.171Z,74.50
2022-09-28T09:00:09.591Z,74.59
2022-09-28T09:01:16.030Z,74.62
2022-09-28T09:02:24.983Z,74.55
2022-09-28T09:03:35.481Z,74.60
2022-09-28T09:04:51.518Z,74.55
2022-09-28T09:06:16.384Z,74.42
2022-09-28T09:07:59.743Z,74.39
2022-09-28T09:09:26.451Z,74.15
2022-09-28T09:10:53.903Z,74.19
2022-09-28T09:12:07.154Z,74.03
2022-09-28T09:13:32.304Z,74.06
2022-09-28T09:14:40.389Z,74.08
2022-09-28T09:15:54.637Z,74.20
2022-09-28T09:17:17.968Z,74.16
2022-09-28T09:18:50.109Z,74.22
2022-09-28T09:20:27.209Z,74.29
2022-09-28T09:21:43.572Z,74.34
2022-09-28T09:23:00.755Z,74.42
2022-09-28T09:24:26.949Z,74.49
2022-09-28T09:25:38.654Z,74.48
2022-09-28T09:26:43.722Z,74.53
2022-09-28T09:27:57.293Z,74.54
2022-09-28T09:29:26.081Z,74.66
2022-09-28T09:30:34.115Z,74.77
2022-09-28T09:31:52.609Z,74.84
2022-09-28T09:33:08.192Z,74.91
2022-09-28T09:34:45.437Z,74.88
2022-09-28T09:36:22.083Z,74.86
2022-09-28T09:37:42.286Z,74.93
2022-09-28T09:39:08.275Z,75.00
2022-09-28T09:40:38.448Z,75.00
2022-09-28T09:41:55.997Z,74.77
2022-09-28T09:43:46.164Z,74.52
2022-09-28T09:45:30.127Z,74.46
2022-09-28T09:47:02.720Z,74.09
2022-09-28T09:48:11.259Z,73.82
2022-09-28T09:49:21.251Z,73.55
2022-09-28T09:50:29.473Z,73.43
2022-09-28T09:51:45.215Z,73.33
2022-09-28T09:52:55.279Z,73.38
2022-09-28T09:54:01.923Z,73.31
2022-09-28T09:55:11.600Z,73.34
2022-09-28T09:56:25.816Z,73.35
2022-09-28T09:57:52.533Z,73.40
2022-09-28T09:59:03.982Z,73.54
2022-09-28T10:00:15.198Z,73.44
2022-09-28T10:01:29.453Z,73.56
2022-09-28T10:02:50.456Z,73.67
2022-09-28T10:03:59.156Z,73.71
2022-09-28T10:05:08.697Z,73.52
2022-09-28T10:06:21.993Z,73.52
2022-09-28T10:07:43.634Z,73.43
2022-09-28T10:08:53.419Z,73.50
2022-09-28T10:09:59.526Z,73.51
2022-09-28T10:11:17.051Z,73.55
2022-09-28T10:12:23.682Z,73.56
2022-09-28T10:13:28.672Z,73.58
2022-09-28T10:14:31.990Z,73.52
2022-09-28T10:15:39.130Z,73.51
2022-09-28T10:16:49.350Z,73.56
2022-09-28T10:17:56.440Z,73.43
2022-09-28T10:19:21.146Z,73.42
2022-09-28T10:20:44.578Z,73.36
2022-09-28T10:21:52.954Z,73.25
2022-09-28T10:23:06.182Z,73.15
2022-09-28T10:24:32.281Z,73.01
2022-09-28T10:25:37.566Z,72.88
2022-09-28T10:26:44.208Z,72.69
2022-09-28T10:27:52.032Z,72.57
2022-09-28T10:29:03.687Z,72.52
2022-09-28T10:30:13.635Z,72.47
2022-09-28T10:31:41.341Z,72.47
2022-09-28T10:32:48.491Z,72.37
2022-09-28T10:33:53.237Z,72.16
2022-09-28T10:34:59.867Z,71.85
2022-09-28T10:36:06.751Z,71.60
2022-09-28T10:37:11.270Z,71.11
2022-09-28T10:38:34.851Z,71.07
2022-09-28T10:39:43.238Z,70.85
2022-09-28T10:41:00.376Z,70.76
2022-09-28T10:42:25.156Z,70.65
2022-09-28T10:43:33.071Z,70.44
2022-09-28T10:44:58.771Z,70.22
2022-09-28T10:46:09.190Z,69.77
2022-09-28T10:47:16.997Z,69.58
2022-09-28T10:48:21.888Z,69.45
2022-09-28T10:49:26.588Z,69.35
2022-09-28T10:50:31.709Z,69.27
2022-09-28T10:51:42.579Z,69.15
2022-09-28T10:52:47.704Z,69.08
2022-09-28T10:54:02.305Z,69.15
2022-09-28T10:55:28.119Z,69.14
2022-09-28T10:56:36.717Z,69.15
2022-09-28T10:57:41.392Z,69.01
2022-09-28T10:58:45.223Z,69.01
2022-09-28T10:59:50.017Z,69.16
2022-09-28T11:01:16.020Z,69.16
2022-09-28T11:02:35.673Z,69.18
2022-09-28T11:03:59.265Z,69.13
2022-09-28T11:05:04.911Z,69.10
2022-09-28T11:06:09.878Z,69.01
2022-09-28T11:07:19.702Z,69.07
2022-09-28T11:08:27.226Z,69.01
2022-09-28T11:09:33.229Z,69.07
2022-09-28T11:10:38.780Z,69.09
2022-09-28T11:11:46.760Z,69.11
2022-09-28T11:12:52.140Z,69.02
2022-09-28T11:14:00.799Z,69.06
2022-09-28T11:15:07.162Z,69.14
2022-09-28T11:17:39.881Z,69.36
2022-09-28T11:18:43.205Z,69.45
2022-09-28T11:19:46.537Z,69.52
2022-09-28T11:20:49.881Z,69.53
2022-09-28T11:21:52.963Z,69.65
2022-09-28T11:23:04.349Z,69.73
2022-09-28T11:24:23.389Z,69.80
2022-09-28T11:25:29.654Z,69.88
2022-09-28T11:26:41.689Z,70.01
2022-09-28T11:27:56.167Z,70.04
2022-09-28T11:28:59.247Z,70.12
2022-09-28T11:30:04.862Z,70.26
2022-09-28T11:31:13.122Z,70.37
2022-09-28T11:32:33.940Z,70.47
2022-09-28T11:34:15.609Z,70.59
2022-09-28T11:35:50.947Z,70.67
2022-09-28T11:37:23.091Z,70.76
2022-09-28T11:38:34.431Z,70.92
2022-09-28T11:39:45.771Z,70.97
2022-09-28T11:41:09.247Z,70.91
2022-09-28T11:42:18.792Z,70.99
2022-09-28T11:43:28.602Z,71.01
2022-09-28T11:44:37.972Z,70.98
2022-09-28T11:45:55.228Z,70.97
2022-09-28T11:47:22.382Z,70.99
2022-09-28T11:48:31.697Z,70.94
2022-09-28T11:49:46.962Z,70.85
2022-09-28T11:51:00.683Z,70.77
2022-09-28T11:52:24.918Z,70.88
2022-09-28T11:53:41.058Z,70.86
2022-09-28T11:55:00.879Z,70.87
2022-09-28T11:56:09.065Z,70.78
2022-09-28T11:57:16.060Z,70.66
2022-09-28T11:58:35.224Z,70.62
2022-09-28T11:59:44.774Z,70.62
2022-09-28T12:00:51.515Z,70.72
2022-09-28T12:01:57.658Z,70.71
2022-09-28T12:03:14.740Z,70.57
2022-09-28T12:04:21.255Z,70.46
2022-09-28T12:05:30.710Z,70.46
2022-09-28T12:06:40.162Z,70.47
2022-09-28T12:07:49.433Z,70.45
2022-09-28T12:10:23.278Z,70.19
2022-09-28T12:11:32.951Z,69.98
2022-09-28T12:13:11.328Z,69.78
2022-09-28T12:14:17.802Z,69.74
2022-09-28T12:15:24.536Z,69.63
2022-09-28T12:17:07.394Z,69.43
2022-09-28T12:17:57.802Z,69.34
2022-09-28T12:19:10.119Z,69.32
2022-09-28T12:20:32.718Z,69.36
2022-09-28T12:21:50.976Z,69.48
2022-09-28T12:23:03.602Z,69.53
2022-09-28T12:24:16.167Z,69.60
2022-09-28T12:25:22.598Z,69.73
2022-09-28T12:26:38.216Z,69.71
2022-09-28T12:27:51.171Z,69.85
2022-09-28T12:28:57.694Z,69.93
2022-09-28T12:30:04.135Z,69.99
2022-09-28T12:31:16.629Z,70.08
2022-09-28T12:32:29.393Z,70.19
2022-09-28T12:33:32.463Z,70.38
2022-09-28T12:34:35.464Z,70.31
2022-09-28T12:35:47.778Z,70.38
2022-09-28T12:37:02.845Z,70.38
2022-09-28T12:38:21.054Z,70.40
2022-09-28T12:39:53.380Z,70.50
2022-09-28T12:40:58.550Z,70.48
2022-09-28T12:42:26.079Z,70.49
2022-09-28T12:44:05.644Z,70.41
2022-09-28T12:46:07.076Z,70.40
2022-09-28T12:47:14.613Z,70.39
2022-09-28T12:48:34.647Z,70.40
2022-09-28T12:50:36.650Z,70.48
2022-09-28T12:51:19.953Z,70.47
2022-09-28T12:52:48.885Z,70.35
2022-09-28T12:53:55.567Z,70.28
2022-09-28T12:55:13.840Z,70.26
2022-09-28T12:56:26.397Z,70.31
2022-09-28T12:57:51.165Z,70.39
2022-09-28T12:59:09.770Z,70.37
2022-09-28T13:00:22.806Z,70.52
2022-09-28T13:01:41.774Z,70.61
2022-09-28T13:03:06.471Z,70.77
2022-09-28T13:04:19.157Z,70.83
2022-09-28T13:05:48.333Z,70.82
2022-09-28T13:08:29.703Z,71.08
2022-09-28T13:09:59.616Z,71.16
2022-09-28T13:11:08.038Z,71.07
2022-09-28T13:12:26.664Z,71.09
2022-09-28T13:13:41.957Z,71.15
2022-09-28T13:15:08.092Z,71.17
2022-09-28T13:16:18.363Z,71.19
2022-09-28T13:17:41.202Z,71.26
2022-09-28T13:18:47.674Z,71.33
2022-09-28T13:20:00.362Z,71.34
2022-09-28T13:21:12.974Z,71.51
2022-09-28T13:22:41.071Z,71.55
2022-09-28T13:23:45.662Z,71.51
2022-09-28T13:24:50.932Z,71.59
2022-09-28T13:26:00.366Z,71.66
2022-09-28T13:27:06.911Z,71.74
2022-09-28T13:28:12.842Z,71.80
2022-09-28T13:29:20.215Z,71.99
2022-09-28T13:30:23.748Z,72.01
2022-09-28T13:31:31.880Z,72.15
2022-09-28T13:32:38.383Z,72.17
2022-09-28T13:33:44.533Z,72.26
2022-09-28T13:34:50.008Z,72.24
2022-09-28T13:35:53.026Z,72.28
2022-09-28T13:37:17.532Z,72.32
2022-09-28T13:38:24.947Z,72.21
2022-09-28T13:39:39.787Z,72.22
2022-09-28T13:41:08.116Z,72.19
2022-09-28T13:42:35.835Z,72.14
2022-09-28T13:44:01.773Z,72.05
2022-09-28T13:45:22.719Z,72.00
2022-09-28T13:46:48.965Z,72.07
2022-09-28T13:48:01.302Z,72.17
2022-09-28T13:49:16.825Z,72.28
2022-09-28T13:50:29.214Z,72.36
2022-09-28T13:52:04.768Z,72.47
2022-09-28T13:53:14.611Z,72.39
2022-09-28T13:54:41.701Z,72.44
2022-09-28T13:55:53.516Z,72.61
2022-09-28T13:57:15.090Z,72.60
2022-09-28T13:58:24.708Z,72.68
2022-09-28T13:59:29.903Z,72.79
2022-09-28T14:00:49.133Z,72.98
2022-09-28T14:01:56.643Z,72.93
2022-09-28T14:03:05.978Z,72.93
2022-09-28T14:04:21.359Z,72.94
2022-09-28T14:05:33.814Z,72.99
2022-09-28T14:06:37.165Z,72.91
2022-09-28T14:07:46.314Z,73.04
2022-09-28T14:09:07.531Z,73.03
2022-09-28T14:10:25.350Z,73.02
2022-09-28T14:11:38.881Z,73.13
2022-09-28T14:12:50.782Z,73.23
2022-09-28T14:14:10.967Z,73.35
2022-09-28T14:15:32.934Z,73.47
2022-09-28T14:16:36.949Z,73.59
2022-09-28T14:17:49.907Z,73.73
2022-09-28T14:19:05.294Z,73.79
2022-09-28T14:20:11.971Z,73.83
2022-09-28T14:21:30.232Z,73.85
2022-09-28T14:22:54.045Z,73.92
2022-09-28T14:24:15.880Z,74.02
2022-09-28T14:25:27.842Z,74.15
2022-09-28T14:26:38.981Z,74.18
2022-09-28T14:28:00.761Z,74.22
2022-09-28T14:29:10.039Z,74.33
2022-09-28T14:30:15.564Z,74.34
2022-09-28T14:31:27.979Z,74.37
2022-09-28T14:32:36.586Z,74.40
2022-09-28T14:33:41.500Z,74.52
2022-09-28T14:34:56.793Z,74.47
2022-09-28T14:36:04.146Z,74.59
2022-09-28T14:37:52.770Z,74.66
2022-09-28T14:39:14.194Z,74.72
2022-09-28T14:40:39.662Z,74.87
2022-09-28T14:41:43.387Z,75.02
2022-09-28T14:44:05.931Z,75.20
2022-09-28T14:45:15.375Z,75.25
2022-09-28T14:46:22.279Z,75.33
2022-09-28T14:47:37.207Z,75.42
2022-09-28T14:48:53.984Z,75.49
2022-09-28T14:50:01.690Z,75.53
2022-09-28T14:51:31.244Z,75.57
2022-09-28T14:52:47.037Z,75.72
2022-09-28T14:53:51.131Z,75.83
2022-09-28T14:54:56.867Z,75.89
2022-09-28T14:56:00.364Z,76.02
2022-09-28T14:57:09.835Z,76.13
2022-09-28T14:58:16.372Z,76.28
2022-09-28T14:59:23.961Z,76.41
2022-09-28T15:00:29.865Z,76.57
2022-09-28T15:01:34.857Z,76.58
2022-09-28T15:02:38.791Z,76.76
2022-09-28T15:03:43.961Z,76.73
2022-09-28T15:04:53.805Z,76.92
2022-09-28T15:05:56.782Z,76.86
2022-09-28T15:06:59.745Z,76.93
2022-09-28T15:08:02.782Z,76.96
2022-09-28T15:09:05.767Z,77.13
2022-09-28T15:10:27.784Z,77.09
2022-09-28T15:11:29.313Z,77.21
2022-09-28T15:12:32.507Z,77.14
2022-09-28T15:13:35.705Z,77.18
2022-09-28T15:14:54.643Z,77.30
2022-09-28T15:16:09.204Z,77.35
2022-09-28T15:17:15.028Z,77.41